Time;durP1;ratioP1;P1;durP2;ratioP2;P2;SDS_P1;SDS_P2;PMS_P1;PMS_P2;Temp;Humidity;BMP_temperature;BMP_pressure;BME280_temperature;BME280_humidity;BME280_pressure;Samples;Min_cycle;Max_cycle;Signal;HPM_P1;HPM_P2
2023/12/05 00:00:18;;;;;;;25.77;10.90;;;2.80;99.90;;;;;;5012580;28;20029;-74
2023/12/05 00:02:43;;;;;;;25.92;12.23;;;2.80;99.90;;;;;;5014017;28;20018;-74
2023/12/05 00:05:09;;;;;;;22.52;10.23;;;2.80;99.90;;;;;;5014290;28;20022;-74
2023/12/05 00:07:35;;;;;;;24.63;10.40;;;2.80;99.90;;;;;;5014045;28;20018;-74
2023/12/05 00:10:01;;;;;;;24.50;10.45;;;2.80;99.90;;;;;;5012980;28;20489;-74
2023/12/05 00:12:26;;;;;;;25.83;12.32;;;2.80;99.90;;;;;;5014058;28;20030;-74
2023/12/05 00:14:52;;;;;;;21.63;10.20;;;2.80;99.90;;;;;;5014496;28;20026;-74
2023/12/05 00:17:18;;;;;;;23.92;10.85;;;2.80;99.90;;;;;;5014110;28;20030;-74
2023/12/05 00:19:44;;;;;;;24.20;10.45;;;2.80;99.90;;;;;;5014285;28;20534;-74
2023/12/05 00:22:09;;;;;;;24.63;11.52;;;2.80;99.90;;;;;;5012977;28;20053;-74
2023/12/05 00:24:35;;;;;;;25.20;11.00;;;2.80;99.90;;;;;;5012700;28;20034;-74
2023/12/05 00:27:00;;;;;;;23.33;10.88;;;2.80;99.90;;;;;;5014040;28;20018;-74
2023/12/05 00:29:26;;;;;;;26.52;11.60;;;2.80;99.90;;;;;;5013910;28;20034;-74
2023/12/05 00:31:52;;;;;;;26.02;11.20;;;2.80;99.90;;;;;;5014208;28;20096;-74
2023/12/05 00:34:18;;;;;;;24.35;11.80;;;2.80;99.90;;;;;;5013757;28;20026;-74
2023/12/05 00:36:44;;;;;;;24.05;10.73;;;2.80;99.90;;;;;;5013731;28;20025;-74
2023/12/05 00:39:09;;;;;;;24.05;10.57;;;2.80;99.90;;;;;;5012665;28;20393;-74
2023/12/05 00:41:35;;;;;;;22.25;10.07;;;2.80;99.90;;;;;;5012877;28;20033;-74
2023/12/05 00:44:00;;;;;;;24.35;11.57;;;2.80;99.90;;;;;;5014029;28;20026;-74
2023/12/05 00:46:27;;;;;;;22.52;10.55;;;2.80;99.90;;;;;;5012999;28;20034;-74
2023/12/05 00:48:53;;;;;;;25.55;11.63;;;2.80;99.90;;;;;;5012509;28;20018;-74
2023/12/05 00:51:18;;;;;;;26.90;11.18;;;2.80;99.90;;;;;;5014208;28;20037;-74
2023/12/05 00:53:44;;;;;;;23.20;10.07;;;2.80;99.90;;;;;;5013629;28;20521;-74
2023/12/05 00:56:14;;;;;;;23.13;10.77;;;2.80;99.90;;;;;;5013911;28;20101;-74
2023/12/05 00:58:40;;;;;;;24.48;11.18;;;2.80;99.90;;;;;;5012326;28;20046;-74
2023/12/05 01:01:06;;;;;;;24.40;10.93;;;2.80;99.90;;;;;;5013562;28;20106;-74
2023/12/05 01:03:32;;;;;;;22.48;10.73;;;2.80;99.90;;;;;;5013923;28;20014;-74
2023/12/05 01:05:58;;;;;;;19.92;9.57;;;2.80;99.90;;;;;;5012264;28;20505;-74
2023/12/05 01:08:23;;;;;;;21.42;10.02;;;2.80;99.90;;;;;;5013591;28;20029;-74
2023/12/05 01:10:49;;;;;;;20.95;9.52;;;2.70;99.90;;;;;;5012440;28;20036;-74
2023/12/05 01:13:14;;;;;;;21.65;10.38;;;2.70;99.90;;;;;;5016647;28;20021;-74
2023/12/05 01:15:40;;;;;;;20.13;9.35;;;2.80;99.90;;;;;;5017504;28;20026;-74
2023/12/05 01:18:05;;;;;;;20.58;9.32;;;2.80;99.90;;;;;;5017577;28;20101;-74
2023/12/05 01:20:31;;;;;;;19.48;9.77;;;2.80;99.90;;;;;;5017654;28;20022;-74
2023/12/05 01:22:57;;;;;;;18.73;8.75;;;2.70;99.90;;;;;;5017466;28;20037;-74
2023/12/05 01:25:22;;;;;;;19.92;9.32;;;2.80;99.90;;;;;;5017709;28;20123;-74
2023/12/05 01:27:48;;;;;;;18.60;8.73;;;2.80;99.90;;;;;;5017821;28;20462;-74
2023/12/05 01:30:14;;;;;;;18.98;9.38;;;2.80;99.90;;;;;;5016856;28;20022;-74
2023/12/05 01:32:39;;;;;;;20.55;9.23;;;2.80;99.90;;;;;;5017129;28;20030;-74
2023/12/05 01:35:05;;;;;;;21.20;9.15;;;2.80;99.90;;;;;;5015816;28;20040;-74
2023/12/05 01:37:31;;;;;;;19.10;9.10;;;2.70;99.90;;;;;;5016624;28;20030;-74
2023/12/05 01:39:56;;;;;;;19.58;9.27;;;2.70;99.90;;;;;;5017222;28;20478;-74
2023/12/05 01:42:22;;;;;;;16.63;8.10;;;2.80;99.90;;;;;;5017180;28;20588;-74
2023/12/05 01:44:47;;;;;;;19.88;8.40;;;2.70;99.90;;;;;;5017023;28;20097;-74
2023/12/05 01:47:16;;;;;;;19.77;9.18;;;2.70;99.90;;;;;;5016188;28;20022;-74
2023/12/05 01:49:42;;;;;;;19.13;9.18;;;2.70;99.90;;;;;;5016475;28;20474;-74
2023/12/05 01:52:08;;;;;;;17.92;8.68;;;2.70;99.90;;;;;;5016679;28;20363;-74
2023/12/05 01:54:34;;;;;;;18.17;8.27;;;2.70;99.90;;;;;;5016705;28;20026;-74
2023/12/05 01:57:01;;;;;;;19.02;8.68;;;2.80;99.90;;;;;;5017123;28;20080;-74
2023/12/05 01:59:26;;;;;;;17.13;8.15;;;4.00;99.90;;;;;;5016525;28;20030;-74
2023/12/05 02:01:53;;;;;;;19.00;8.25;;;2.80;99.90;;;;;;5017478;28;20033;-74
2023/12/05 02:04:19;;;;;;;17.75;8.18;;;2.70;99.90;;;;;;5014928;28;20508;-74
2023/12/05 02:06:49;;;;;;;16.60;7.55;;;2.70;99.90;;;;;;5016236;28;20037;-74
2023/12/05 02:09:16;;;;;;;18.02;7.70;;;2.70;99.90;;;;;;5016218;28;20121;-74
2023/12/05 02:11:42;;;;;;;18.50;8.40;;;2.70;99.90;;;;;;5016109;28;20072;-74
2023/12/05 02:14:09;;;;;;;18.75;8.27;;;2.70;99.90;;;;;;5016286;28;20037;-74
2023/12/05 02:16:45;;;;;;;19.58;8.85;;;2.70;99.90;;;;;;5015480;28;20025;-75
2023/12/05 02:19:28;;;;;;;15.98;7.35;;;2.70;99.90;;;;;;5016136;28;20428;-75
2023/12/05 02:22:00;;;;;;;18.10;8.32;;;2.60;99.90;;;;;;5014842;28;20037;-74
2023/12/05 02:24:40;;;;;;;16.85;7.88;;;2.60;99.90;;;;;;5013743;28;20080;-75
2023/12/05 02:27:18;;;;;;;18.45;8.15;;;2.70;99.90;;;;;;5015957;28;20033;-74
2023/12/05 02:29:51;;;;;;;19.90;8.00;;;2.60;99.90;;;;;;5016306;28;20101;-74
2023/12/05 02:32:17;;;;;;;16.00;7.35;;;2.70;99.90;;;;;;5014786;28;20473;-74
2023/12/05 02:34:43;;;;;;;15.60;6.88;;;2.70;99.90;;;;;;5016035;28;20026;-74
2023/12/05 02:37:27;;;;;;;16.77;7.68;;;2.70;99.90;;;;;;5015970;28;20076;-74
2023/12/05 02:40:11;;;;;;;15.07;6.65;;;2.70;99.90;;;;;;5016390;28;20030;-74
2023/12/05 02:42:38;;;;;;;14.88;7.13;;;2.60;99.90;;;;;;5014530;28;20030;-75
2023/12/05 02:45:06;;;;;;;14.05;6.30;;;2.90;99.90;;;;;;5015619;28;20429;-75
2023/12/05 02:47:33;;;;;;;12.45;5.35;;;2.60;99.90;;;;;;5015866;28;20018;-74
2023/12/05 02:49:58;;;;;;;17.35;7.07;;;2.60;99.90;;;;;;5015506;28;20029;-74
2023/12/05 02:52:24;;;;;;;17.30;7.35;;;2.60;99.90;;;;;;5015799;28;20385;-74
2023/12/05 02:54:49;;;;;;;14.15;6.25;;;2.50;99.90;;;;;;5014375;28;20022;-74
2023/12/05 02:57:15;;;;;;;17.23;7.30;;;2.60;99.90;;;;;;5015600;28;20040;-74
2023/12/05 02:59:41;;;;;;;16.00;7.05;;;2.60;99.90;;;;;;5014201;28;20022;-75
2023/12/05 03:02:06;;;;;;;16.67;6.93;;;2.60;99.90;;;;;;5015235;28;20397;-74
2023/12/05 03:04:32;;;;;;;16.02;7.18;;;2.60;99.90;;;;;;5015335;28;20053;-74
2023/12/05 03:06:57;;;;;;;18.77;7.53;;;2.60;99.90;;;;;;5015099;28;20025;-75
2023/12/05 03:09:23;;;;;;;16.02;6.72;;;2.60;99.90;;;;;;5014988;28;20493;-74
2023/12/05 03:11:48;;;;;;;17.23;7.25;;;2.60;99.90;;;;;;5015309;28;20022;-74
2023/12/05 03:14:15;;;;;;;14.45;6.40;;;2.60;99.90;;;;;;5014132;28;20038;-74
2023/12/05 03:16:43;;;;;;;15.57;7.47;;;2.60;99.90;;;;;;5015675;28;20033;-75
2023/12/05 03:19:08;;;;;;;19.58;6.93;;;2.60;99.90;;;;;;5013886;28;20053;-75
2023/12/05 03:21:34;;;;;;;14.63;6.45;;;2.50;99.90;;;;;;5015137;28;20504;-75
2023/12/05 03:23:59;;;;;;;14.25;6.65;;;2.60;99.90;;;;;;5015123;28;20029;-74
2023/12/05 03:26:25;;;;;;;11.93;6.18;;;2.50;99.90;;;;;;5015146;28;20108;-75
2023/12/05 03:28:51;;;;;;;12.60;6.03;;;2.50;99.90;;;;;;5014830;28;20033;-75
2023/12/05 03:31:17;;;;;;;14.27;6.70;;;2.50;99.90;;;;;;5015025;28;20075;-74
2023/12/05 03:33:43;;;;;;;13.25;6.05;;;2.50;99.90;;;;;;5014901;28;20060;-75
2023/12/05 03:36:11;;;;;;;14.38;6.35;;;2.50;99.90;;;;;;5013214;28;20057;-75
2023/12/05 03:38:40;;;;;;;13.40;6.07;;;2.50;99.90;;;;;;5013467;28;20018;-75
2023/12/05 03:41:07;;;;;;;12.68;5.78;;;2.70;99.90;;;;;;5014760;28;20021;-75
2023/12/05 03:43:33;;;;;;;13.57;6.68;;;2.50;99.90;;;;;;5014764;28;20032;-75
2023/12/05 03:45:58;;;;;;;14.85;6.30;;;2.40;99.90;;;;;;5014500;28;20104;-75
2023/12/05 03:48:24;;;;;;;11.93;5.78;;;2.50;99.90;;;;;;5015236;28;20026;-75
2023/12/05 03:50:49;;;;;;;14.00;6.15;;;2.40;99.90;;;;;;5014782;28;20026;-74
2023/12/05 03:53:15;;;;;;;13.82;6.30;;;2.40;99.90;;;;;;5013193;28;20057;-75
2023/12/05 03:55:40;;;;;;;13.50;6.13;;;2.40;99.90;;;;;;5014582;28;20030;-75
2023/12/05 03:58:06;;;;;;;13.82;6.47;;;2.40;99.90;;;;;;5013042;28;20033;-75
2023/12/05 04:00:31;;;;;;;16.35;7.53;;;2.40;99.90;;;;;;5014385;28;20049;-75
2023/12/05 04:02:57;;;;;;;15.63;7.00;;;2.40;99.90;;;;;;5013447;28;20493;-75
2023/12/05 04:05:23;;;;;;;14.85;6.13;;;2.40;99.90;;;;;;5014248;28;20421;-74
2023/12/05 04:07:48;;;;;;;13.45;5.72;;;2.40;99.90;;;;;;5014445;28;20026;-75
2023/12/05 04:10:14;;;;;;;12.90;6.25;;;2.40;99.90;;;;;;5014100;28;20029;-75
2023/12/05 04:12:40;;;;;;;13.95;5.95;;;2.40;99.90;;;;;;5012861;28;20031;-75
2023/12/05 04:15:07;;;;;;;13.20;6.28;;;2.30;99.90;;;;;;5014655;28;20045;-75
2023/12/05 04:17:33;;;;;;;14.63;6.43;;;2.40;99.90;;;;;;5012434;28;20478;-74
2023/12/05 04:19:59;;;;;;;15.77;7.28;;;2.30;99.90;;;;;;5013943;28;20018;-74
2023/12/05 04:22:24;;;;;;;14.30;6.70;;;2.40;99.90;;;;;;5014480;28;20025;-74
2023/12/05 04:24:50;;;;;;;15.60;6.78;;;2.30;99.90;;;;;;5013267;28;20030;-75
2023/12/05 04:27:15;;;;;;;14.73;6.32;;;2.30;99.90;;;;;;5014179;28;20095;-75
2023/12/05 04:29:42;;;;;;;16.02;7.05;;;2.30;99.90;;;;;;5012553;28;20022;-74
2023/12/05 04:32:08;;;;;;;14.25;6.38;;;2.30;99.90;;;;;;5013895;28;20032;-74
2023/12/05 04:34:35;;;;;;;15.13;6.30;;;2.30;99.90;;;;;;5013977;28;20053;-74
2023/12/05 04:37:00;;;;;;;14.20;5.78;;;2.30;99.90;;;;;;5012978;28;20018;-75
2023/12/05 04:39:26;;;;;;;15.18;6.88;;;2.30;99.90;;;;;;5012546;28;20018;-74
2023/12/05 04:41:51;;;;;;;17.58;7.47;;;2.30;99.90;;;;;;5012484;28;20018;-75
2023/12/05 04:44:17;;;;;;;18.60;7.47;;;2.30;99.90;;;;;;5013631;28;20076;-75
2023/12/05 04:46:42;;;;;;;16.25;7.18;;;2.30;99.90;;;;;;5013781;28;20114;-75
2023/12/05 04:49:08;;;;;;;15.70;6.82;;;2.30;99.90;;;;;;5016518;28;20037;-75
2023/12/05 04:51:34;;;;;;;14.32;7.20;;;2.30;99.90;;;;;;5017582;28;20092;-74
2023/12/05 04:53:59;;;;;;;14.45;6.28;;;2.30;99.90;;;;;;5018199;28;20554;-74
2023/12/05 04:56:25;;;;;;;17.15;7.55;;;2.30;99.90;;;;;;5017898;28;20034;-74
2023/12/05 04:58:51;;;;;;;19.85;7.57;;;2.30;99.90;;;;;;5017609;28;20388;-75
2023/12/05 05:01:17;;;;;;;15.65;6.85;;;2.20;99.90;;;;;;5017783;28;20500;-75
2023/12/05 05:03:42;;;;;;;15.65;7.15;;;2.30;99.90;;;;;;5017817;28;20470;-75
2023/12/05 05:06:08;;;;;;;17.65;7.78;;;2.30;99.90;;;;;;5016199;28;20060;-75
2023/12/05 05:08:34;;;;;;;16.45;6.85;;;2.30;99.90;;;;;;5017619;28;20072;-75
2023/12/05 05:10:59;;;;;;;14.90;6.38;;;2.20;99.90;;;;;;5017477;28;20026;-75
2023/12/05 05:13:25;;;;;;;16.27;7.18;;;2.20;99.90;;;;;;5017579;28;20042;-75
2023/12/05 05:15:51;;;;;;;17.90;7.07;;;2.20;99.90;;;;;;5017824;28;20097;-75
2023/12/05 05:18:16;;;;;;;16.63;7.20;;;2.20;99.90;;;;;;5017426;28;20026;-75
2023/12/05 05:20:42;;;;;;;16.48;7.05;;;2.70;99.90;;;;;;5016013;28;20458;-75
2023/12/05 05:23:09;;;;;;;14.75;6.32;;;2.20;99.90;;;;;;5018042;28;20390;-75
2023/12/05 05:25:35;;;;;;;13.13;6.13;;;2.20;99.90;;;;;;5016866;28;20120;-74
2023/12/05 05:28:01;;;;;;;13.82;6.57;;;2.10;99.90;;;;;;5016924;28;20477;-75
2023/12/05 05:30:27;;;;;;;13.98;6.32;;;2.10;99.90;;;;;;5017297;28;20401;-75
2023/12/05 05:32:52;;;;;;;12.57;5.75;;;2.10;99.90;;;;;;5016147;28;20029;-75
2023/12/05 05:35:18;;;;;;;13.93;5.97;;;2.10;99.90;;;;;;5017411;28;20029;-75
2023/12/05 05:37:43;;;;;;;15.13;5.68;;;2.10;99.90;;;;;;5016131;28;20421;-74
2023/12/05 05:40:09;;;;;;;12.50;5.35;;;2.10;99.90;;;;;;5017222;28;20100;-74
2023/12/05 05:42:35;;;;;;;13.52;6.13;;;2.10;99.90;;;;;;5017340;28;20033;-74
2023/12/05 05:45:00;;;;;;;13.88;5.78;;;2.10;99.90;;;;;;5016829;28;20109;-74
2023/12/05 05:47:26;;;;;;;11.30;5.40;;;2.10;99.90;;;;;;5016638;28;20029;-74
2023/12/05 05:49:52;;;;;;;12.95;5.32;;;2.10;99.90;;;;;;5017162;28;20029;-74
2023/12/05 05:52:17;;;;;;;13.10;5.57;;;2.10;99.90;;;;;;5016730;28;20141;-75
2023/12/05 05:54:43;;;;;;;14.60;6.28;;;2.10;99.90;;;;;;5017286;28;20022;-75
2023/12/05 05:57:08;;;;;;;12.60;5.30;;;2.10;99.90;;;;;;5015362;28;20026;-75
2023/12/05 05:59:34;;;;;;;12.40;5.72;;;2.10;99.90;;;;;;5014920;28;20105;-75
2023/12/05 06:01:59;;;;;;;15.00;6.00;;;2.10;99.90;;;;;;5015395;28;20053;-74
2023/12/05 06:04:25;;;;;;;12.80;5.68;;;2.10;99.90;;;;;;5016514;28;20453;-75
2023/12/05 06:06:50;;;;;;;14.27;5.90;;;2.10;99.90;;;;;;5016655;28;20018;-75
2023/12/05 06:09:16;;;;;;;12.68;5.40;;;2.10;99.90;;;;;;5016682;28;20382;-74
2023/12/05 06:11:42;;;;;;;13.48;5.40;;;2.10;99.90;;;;;;5015644;28;20030;-74
2023/12/05 06:14:08;;;;;;;14.52;5.65;;;2.10;99.90;;;;;;5016551;28;20049;-75
2023/12/05 06:16:33;;;;;;;12.45;5.68;;;2.10;99.90;;;;;;5015166;28;20022;-75
2023/12/05 06:18:59;;;;;;;14.55;5.57;;;2.10;99.90;;;;;;5015425;28;20504;-75
2023/12/05 06:21:25;;;;;;;13.55;5.85;;;2.10;99.90;;;;;;5016063;28;20022;-75
2023/12/05 06:23:53;;;;;;;13.77;5.53;;;2.10;99.90;;;;;;5016471;28;20018;-75
2023/12/05 06:26:19;;;;;;;16.38;6.35;;;2.10;99.90;;;;;;5016173;28;20145;-75
2023/12/05 06:28:44;;;;;;;17.35;6.75;;;2.10;99.90;;;;;;5015908;28;20018;-75
2023/12/05 06:31:10;;;;;;;16.90;6.97;;;2.10;99.90;;;;;;5016319;28;20102;-75
2023/12/05 06:33:38;;;;;;;16.08;6.50;;;2.10;99.90;;;;;;5016145;28;20096;-76
2023/12/05 06:36:04;;;;;;;18.80;7.68;;;2.10;99.90;;;;;;5016675;28;20079;-75
2023/12/05 06:38:30;;;;;;;17.17;6.65;;;2.10;99.90;;;;;;5015918;28;20038;-76
2023/12/05 06:40:55;;;;;;;19.30;6.97;;;2.10;99.90;;;;;;5015803;28;20398;-76
2023/12/05 06:43:21;;;;;;;17.00;7.82;;;2.10;99.90;;;;;;5015651;28;20034;-75
2023/12/05 06:45:47;;;;;;;18.30;7.53;;;2.10;99.90;;;;;;5015851;28;20057;-75
2023/12/05 06:48:13;;;;;;;21.55;7.68;;;2.10;99.90;;;;;;5015706;28;20026;-75
2023/12/05 06:50:41;;;;;;;21.65;8.18;;;2.10;99.90;;;;;;5014434;28;20018;-75
2023/12/05 06:53:06;;;;;;;20.30;7.90;;;2.10;99.90;;;;;;5015736;28;20097;-76
2023/12/05 06:55:32;;;;;;;21.10;7.80;;;2.10;99.90;;;;;;5015900;28;20084;-75
2023/12/05 06:57:58;;;;;;;20.02;7.57;;;2.00;99.90;;;;;;5014528;28;20026;-75
2023/12/05 07:00:24;;;;;;;21.42;8.15;;;2.10;99.90;;;;;;5014170;28;20022;-75
2023/12/05 07:02:50;;;;;;;17.95;7.85;;;2.10;99.90;;;;;;5014126;28;20018;-75
2023/12/05 07:05:15;;;;;;;18.30;7.43;;;2.00;99.90;;;;;;5014362;28;20033;-75
2023/12/05 07:07:41;;;;;;;18.98;7.30;;;2.10;99.90;;;;;;5013858;28;20026;-75
2023/12/05 07:10:07;;;;;;;20.70;7.95;;;2.10;99.90;;;;;;5014861;28;20509;-75
2023/12/05 07:12:32;;;;;;;20.50;7.78;;;2.10;99.90;;;;;;5014223;28;20396;-75
2023/12/05 07:14:58;;;;;;;20.63;7.88;;;2.10;99.90;;;;;;5016107;28;20044;-75
2023/12/05 07:17:23;;;;;;;17.70;6.45;;;2.10;99.90;;;;;;5014190;28;20061;-75
2023/12/05 07:19:49;;;;;;;17.80;7.25;;;2.10;99.90;;;;;;5013851;28;20026;-75
2023/12/05 07:22:15;;;;;;;16.73;7.72;;;2.10;99.90;;;;;;5015308;28;20504;-76
2023/12/05 07:24:40;;;;;;;15.35;6.22;;;2.10;99.90;;;;;;5014920;28;20088;-76
2023/12/05 07:27:06;;;;;;;14.38;5.95;;;2.10;99.90;;;;;;5015456;28;20036;-75
2023/12/05 07:29:31;;;;;;;17.08;6.80;;;2.20;99.90;;;;;;5014786;28;20029;-75
2023/12/05 07:31:57;;;;;;;17.88;7.20;;;2.20;99.90;;;;;;5014893;28;20033;-75
2023/12/05 07:34:22;;;;;;;16.80;7.03;;;2.20;99.90;;;;;;5014807;28;20045;-75
2023/12/05 07:36:48;;;;;;;18.05;6.53;;;2.20;99.90;;;;;;5013532;28;20025;-75
2023/12/05 07:39:14;;;;;;;16.48;6.45;;;2.20;99.90;;;;;;5014528;28;20108;-75
2023/12/05 07:41:40;;;;;;;15.60;6.50;;;2.20;99.90;;;;;;5013435;28;20029;-75
2023/12/05 07:44:08;;;;;;;16.60;6.47;;;2.20;99.90;;;;;;5014454;28;20108;-75
2023/12/05 07:46:34;;;;;;;15.38;6.22;;;2.30;99.90;;;;;;5013299;28;20560;-75
2023/12/05 07:49:01;;;;;;;18.88;7.43;;;2.30;99.90;;;;;;5014944;28;20060;-75
2023/12/05 07:51:27;;;;;;;15.15;6.18;;;2.20;99.90;;;;;;5014931;28;20045;-75
2023/12/05 07:53:53;;;;;;;17.08;6.60;;;2.20;99.90;;;;;;5014801;28;20037;-76
2023/12/05 07:56:18;;;;;;;16.88;7.07;;;2.30;99.90;;;;;;5014620;28;20441;-75
2023/12/05 07:58:44;;;;;;;17.25;6.97;;;2.30;99.90;;;;;;5014493;28;20084;-75
2023/12/05 08:01:10;;;;;;;18.17;6.68;;;2.20;99.90;;;;;;5014011;28;20061;-76
2023/12/05 08:03:36;;;;;;;17.20;6.70;;;2.30;99.90;;;;;;5014535;28;20053;-75
2023/12/05 08:06:02;;;;;;;18.40;7.13;;;2.30;99.90;;;;;;5014153;28;20018;-76
2023/12/05 08:08:30;;;;;;;19.85;7.55;;;2.30;99.90;;;;;;5014346;28;20100;-76
2023/12/05 08:10:59;;;;;;;20.42;8.23;;;2.40;99.90;;;;;;5012900;28;20029;-76
2023/12/05 08:13:25;;;;;;;;;;;2.30;99.90;;;;;;5014788;28;20490;-76
2023/12/05 08:15:54;;;;;;;16.38;6.22;;;2.30;99.90;;;;;;5012797;28;19909;-75
2023/12/05 08:18:20;;;;;;;;;;;2.40;99.90;;;;;;5013138;28;20048;-78
2023/12/05 08:20:46;;;;;;;14.98;6.15;;;2.40;99.90;;;;;;5014379;28;19909;-77
2023/12/05 08:23:11;;;;;;;17.02;6.97;;;2.40;99.90;;;;;;5013849;28;20034;-76
2023/12/05 08:25:37;;;;;;;18.00;7.72;;;2.40;99.90;;;;;;5014610;28;20397;-79
2023/12/05 08:28:03;;;;;;;18.08;7.00;;;2.50;99.90;;;;;;5014446;28;20030;-76
2023/12/05 08:30:28;;;;;;;18.20;7.43;;;2.30;99.90;;;;;;5014140;28;20033;-77
2023/12/05 08:32:57;;;;;;;18.95;8.63;;;2.40;99.90;;;;;;5012903;28;20014;-76
2023/12/05 08:35:23;;;;;;;19.75;8.15;;;2.40;99.90;;;;;;5012710;28;20505;-77
2023/12/05 08:37:49;;;;;;;17.67;7.72;;;2.40;99.90;;;;;;5013856;28;20029;-77
2023/12/05 08:40:15;;;;;;;16.60;7.15;;;2.40;99.90;;;;;;5012928;28;20088;-77
2023/12/05 08:42:42;;;;;;;19.02;6.88;;;2.40;99.90;;;;;;5013939;28;20053;-76
2023/12/05 08:45:11;;;;;;;19.02;8.25;;;2.50;99.90;;;;;;5012713;28;20037;-77
2023/12/05 08:47:41;;;;;;;16.77;7.03;;;2.40;99.90;;;;;;5012825;28;20030;-77
2023/12/05 08:50:08;;;;;;;21.35;8.43;;;2.40;99.90;;;;;;5013946;28;20508;-77
2023/12/05 08:52:34;;;;;;;17.90;7.43;;;2.50;99.90;;;;;;5012408;28;20076;-76
2023/12/05 08:55:00;;;;;;;18.33;7.45;;;2.50;99.90;;;;;;5012818;28;20420;-77
2023/12/05 08:57:26;;;;;;;20.90;8.23;;;2.50;99.90;;;;;;5013563;28;20092;-76
2023/12/05 08:59:52;;;;;;;20.25;8.32;;;2.60;99.90;;;;;;5012088;28;20014;-77
2023/12/05 09:02:19;;;;;;;16.80;6.85;;;2.60;99.90;;;;;;5013435;28;20022;-76
2023/12/05 09:04:45;;;;;;;17.02;7.53;;;2.50;99.90;;;;;;5013341;28;20105;-77
2023/12/05 09:07:10;;;;;;;17.10;7.78;;;2.50;99.90;;;;;;5013469;28;20056;-76
2023/12/05 09:09:36;;;;;;;17.20;7.97;;;2.50;99.90;;;;;;5011909;28;20065;-76
2023/12/05 09:12:02;;;;;;;13.65;6.22;;;2.40;99.90;;;;;;5013529;28;20030;-76
2023/12/05 09:14:28;;;;;;;16.60;7.78;;;2.40;99.90;;;;;;5012431;28;20049;-77
2023/12/05 09:16:53;;;;;;;15.50;6.85;;;2.40;99.90;;;;;;5013390;28;20123;-77
2023/12/05 09:19:19;;;;;;;17.55;6.90;;;2.40;99.90;;;;;;5013953;28;20026;-77
2023/12/05 09:21:45;;;;;;;15.80;6.90;;;2.40;99.90;;;;;;5013251;28;20030;-77
2023/12/05 09:24:11;;;;;;;18.38;7.30;;;2.40;99.90;;;;;;5013466;28;20098;-77
2023/12/05 09:26:37;;;;;;;17.67;6.75;;;2.30;99.90;;;;;;5012094;28;20453;-77
2023/12/05 09:29:02;;;;;;;16.52;6.60;;;2.30;99.90;;;;;;5011983;28;20112;-77
2023/12/05 09:31:28;;;;;;;17.48;6.57;;;2.30;99.90;;;;;;5013772;28;20093;-77
2023/12/05 09:33:55;;;;;;;17.02;6.72;;;2.30;99.90;;;;;;5015073;28;20040;-77
2023/12/05 09:36:21;;;;;;;16.48;7.00;;;2.30;99.90;;;;;;5017015;28;20037;-77
2023/12/05 09:38:47;;;;;;;18.48;7.25;;;2.20;99.90;;;;;;5017096;28;20040;-77
2023/12/05 09:41:14;;;;;;;18.50;6.70;;;2.20;99.90;;;;;;5016797;28;20026;-77
2023/12/05 09:43:40;;;;;;;19.50;7.68;;;2.20;99.90;;;;;;5016876;28;20030;-77
2023/12/05 09:46:08;;;;;;;18.98;7.97;;;2.20;99.90;;;;;;5016770;28;20096;-77
2023/12/05 09:48:58;;;;;;;20.52;7.60;;;2.30;99.90;;;;;;5015594;28;20033;-76
2023/12/05 09:51:24;;;;;;;20.08;7.95;;;2.30;99.90;;;;;;5016981;28;20055;-77
2023/12/05 09:53:53;;;;;;;22.10;8.95;;;2.30;99.90;;;;;;5017091;28;20033;-77
2023/12/05 09:56:19;;;;;;;;;;;2.30;99.90;;;;;;5017131;28;20018;-76
2023/12/05 09:58:45;;;;;;;22.25;8.27;;;2.40;99.90;;;;;;5015430;28;20284;-76
2023/12/05 10:01:18;;;;;;;18.70;7.75;;;2.40;99.90;;;;;;5015391;28;20160;-77
2023/12/05 10:03:45;;;;;;;22.30;8.73;;;2.40;99.90;;;;;;5015743;28;20037;-77
2023/12/05 10:06:11;;;;;;;23.27;8.43;;;2.40;99.90;;;;;;5015472;28;20028;-77
2023/12/05 10:08:37;;;;;;;22.38;8.43;;;;;;;;;;5016273;28;20042;-77
2023/12/05 10:11:04;;;;;;;23.25;8.70;;;2.50;99.90;;;;;;5016563;28;20486;-77
2023/12/05 10:13:30;;;;;;;28.23;9.57;;;2.50;99.90;;;;;;5016291;28;20045;-77
2023/12/05 10:15:58;;;;;;;25.38;9.38;;;2.50;99.90;;;;;;5016656;28;20397;-76
2023/12/05 10:18:27;;;;;;;23.35;9.23;;;2.50;99.90;;;;;;5016365;28;20029;-77
2023/12/05 10:20:52;;;;;;;27.35;9.43;;;2.50;99.90;;;;;;5016047;28;20034;-77
2023/12/05 10:23:18;;;;;;;23.40;9.48;;;2.40;99.90;;;;;;5016173;28;20504;-76
2023/12/05 10:25:44;;;;;;;26.10;9.43;;;2.40;99.90;;;;;;5014750;28;20026;-77
2023/12/05 10:28:12;;;;;;;26.85;8.70;;;2.40;99.90;;;;;;5016654;28;20377;-77
2023/12/05 10:30:38;;;;;;;27.83;9.82;;;2.40;99.90;;;;;;5016175;28;20079;-77
2023/12/05 10:33:16;;;;;;;28.67;10.00;;;2.40;99.90;;;;;;5014831;28;20085;-77
2023/12/05 10:35:43;;;;;;;27.75;10.23;;;2.50;99.90;;;;;;5015971;28;20079;-77
2023/12/05 10:38:11;;;;;;;27.58;9.75;;;2.50;99.90;;;;;;5014619;28;20018;-77
2023/12/05 10:40:59;;;;;;;26.83;9.65;;;2.50;99.90;;;;;;4996265;28;20084;-77
2023/12/05 10:43:26;;;;;;;28.08;10.82;;;2.50;99.90;;;;;;4996532;28;20101;-77
2023/12/05 10:45:53;;;;;;;25.42;9.80;;;2.50;99.90;;;;;;4996723;28;20121;-77
2023/12/05 10:48:19;;;;;;;25.58;9.20;;;2.50;99.90;;;;;;4996539;28;20022;-77
2023/12/05 10:50:49;;;;;;;30.40;10.80;;;2.50;99.90;;;;;;4998622;28;20030;-77
2023/12/05 10:53:15;;;;;;;27.30;10.90;;;2.50;99.90;;;;;;5003199;28;20029;-77
2023/12/05 10:55:42;;;;;;;26.13;10.70;;;2.50;99.90;;;;;;5044352;28;20033;-77
2023/12/05 10:58:09;;;;;;;27.50;10.63;;;2.50;99.90;;;;;;5004788;28;20117;-77
2023/12/05 11:00:39;;;;;;;31.20;10.07;;;2.40;99.90;;;;;;5031458;28;20018;-77
2023/12/05 11:03:05;;;;;;;30.73;10.82;;;2.50;99.90;;;;;;4996115;28;20038;-76
2023/12/05 11:05:32;;;;;;;32.28;11.20;;;2.50;99.90;;;;;;4995605;28;20026;-77
2023/12/05 11:07:58;;;;;;;28.90;10.68;;;2.50;99.90;;;;;;4995916;28;20536;-77
2023/12/05 11:10:25;;;;;;;29.95;10.75;;;2.50;99.90;;;;;;4995631;28;20033;-77
2023/12/05 11:12:53;;;;;;;29.98;9.98;;;2.50;99.90;;;;;;4996041;28;20398;-77
2023/12/05 11:15:27;;;;;;;27.25;10.63;;;2.50;99.90;;;;;;5003807;28;20026;-77
2023/12/05 11:17:59;;;;;;;32.67;10.88;;;2.50;99.90;;;;;;4996236;28;20038;-77
2023/12/05 11:20:43;;;;;;;29.45;10.27;;;2.50;99.90;;;;;;4995691;28;20030;-77
2023/12/05 11:23:37;;;;;;;25.80;11.18;;;2.50;99.90;;;;;;4998931;28;20032;-77
2023/12/05 11:26:11;;;;;;;27.92;11.30;;;2.50;99.90;;;;;;5008085;28;20038;-77
2023/12/05 11:29:17;;;;;;;29.58;10.65;;;2.50;99.90;;;;;;5012125;28;20022;-77
2023/12/05 11:32:00;;;;;;;32.55;11.02;;;2.50;99.90;;;;;;5013596;28;20409;-76
2023/12/05 11:34:50;;;;;;;29.85;10.93;;;2.50;99.90;;;;;;5015789;28;20076;-77
2023/12/05 11:37:39;;;;;;;28.15;10.43;;;2.50;99.90;;;;;;5013910;28;20026;-77
2023/12/05 11:40:06;;;;;;;27.60;9.90;;;2.60;99.90;;;;;;5013366;28;20085;-77
2023/12/05 11:42:34;;;;;;;26.08;10.25;;;2.60;99.90;;;;;;5015235;28;20390;-77
2023/12/05 11:45:20;;;;;;;28.10;10.80;;;2.50;99.90;;;;;;5015463;28;20026;-77
2023/12/05 11:47:47;;;;;;;24.08;9.40;;;2.50;99.90;;;;;;5015228;28;20026;-77
2023/12/05 11:50:16;;;;;;;30.27;10.27;;;2.50;99.90;;;;;;5013612;28;20103;-77
2023/12/05 11:52:42;;;;;;;26.25;10.73;;;2.60;99.90;;;;;;5014379;28;20018;-77
2023/12/05 11:55:10;;;;;;;29.52;10.70;;;2.60;99.90;;;;;;5015556;28;20493;-77
2023/12/05 11:57:36;;;;;;;26.98;9.60;;;2.60;99.90;;;;;;5013518;28;20030;-77
2023/12/05 12:00:03;;;;;;;29.25;10.48;;;2.60;99.90;;;;;;5013594;28;20076;-77
2023/12/05 12:02:32;;;;;;;31.98;11.05;;;2.60;99.90;;;;;;5015344;28;20527;-77
2023/12/05 12:05:05;;;;;;;27.52;10.98;;;2.60;99.90;;;;;;5013763;28;20026;-77
2023/12/05 12:07:32;;;;;;;31.88;10.70;;;2.70;99.90;;;;;;5013881;28;20448;-77
2023/12/05 12:09:58;;;;;;;29.42;11.63;;;2.70;99.90;;;;;;5012990;28;20036;-77
2023/12/05 12:12:24;;;;;;;27.98;10.07;;;2.60;99.90;;;;;;5014369;28;20385;-77
2023/12/05 12:14:50;;;;;;;26.70;10.43;;;2.60;99.90;;;;;;5014727;28;20034;-77
2023/12/05 12:17:16;;;;;;;27.63;10.55;;;2.70;99.90;;;;;;5014311;28;20378;-77
2023/12/05 12:19:43;;;;;;;34.38;11.20;;;2.60;99.90;;;;;;5012682;28;20084;-77
2023/12/05 12:22:52;;;;;;;31.73;11.20;;;2.70;99.90;;;;;;5014186;28;20428;-77
2023/12/05 12:25:17;;;;;;;26.38;9.93;;;2.70;99.90;;;;;;5014554;28;20026;-77
2023/12/05 12:27:44;;;;;;;28.67;11.00;;;2.60;99.90;;;;;;5014275;28;20048;-76
2023/12/05 12:30:15;;;;;;;30.38;10.43;;;2.60;99.90;;;;;;5012958;28;20029;-76
2023/12/05 12:33:09;;;;;;;28.75;10.27;;;2.60;99.90;;;;;;5013050;28;20021;-76
2023/12/05 12:35:35;;;;;;;25.42;9.75;;;2.60;99.90;;;;;;5014046;28;20101;-77
2023/12/05 12:38:00;;;;;;;30.50;11.43;;;2.60;99.90;;;;;;5012648;28;20457;-76
2023/12/05 12:40:26;;;;;;;32.60;12.65;;;2.50;99.90;;;;;;5012324;28;20034;-77
2023/12/05 12:42:54;;;;;;;27.33;10.55;;;2.60;99.90;;;;;;5013820;28;20097;-76
2023/12/05 12:45:25;;;;;;;28.50;10.77;;;2.60;99.90;;;;;;5014158;28;20030;-77